Accueil
METAR-TAF:

METAR-TAF

Aéroports :

Aéroport international de Mandalay

Mandalay, Birmanie

latitude: 21-59N, longitude: 096-06E, altitude: 74 m

Observation

Le bulletin a été fait il y a 9 heures et 13 minutes, à 13:30 UTC
Vent calme
Température 32°C
Humidité 43%
Pression 1003 hPa
Visibilité: 6000 m
Nuages épars à une hauteur de 2500 ft
brume sèche,

METAR: VYMD 181330Z 00000KT 6000 HZ SCT025 32/18 Q1003

Heure: 05:13 (22:43 UTC)

Prévision

Le bulletin a été fait il y a 5 heures et 43 minutes, à 17:00 UTC
Prévision valable du 18 à 18 UTC au 19 à 18 UTC
Vent 3 kt de sud/sud-ouest
Visibilité: 6000 m
Nuages épars à une hauteur de 2500 ft
Temporairement
du 18 à 18 UTC au 18 à 24 UTC
Vent 6 kt de sud
Visibilité: 6000 m
Nuages épars à une hauteur de 2500 ft
brume sèche,

TAF: VYMD 181700Z 1818/1918 21003KT 6000 SCT025 TEMPO 1818/1824 18006KT 6000 HZ SCT025

Observations et prévisions météorologiques de plus de 4000 aéroports (messages METAR et TAF).

Les stations disponibles sont représentées par des disques jaunes et rouges sur la carte.

Passer la souris dessus pour voir le nom de la station.

Cliquer dessus pour voir les observations et prévisions météorologiques.

Pour changer de carte: cliquez sur les boutons verts avec une croix noire pour zoomer, sur le bouton vert avec un tiret pour effectuer un zoom arrière, ou sur les flèches vertes pour les cartes adjacentes.


METAR-TAF: